createdAt,value
2023-03-27T00:01:49.510Z,4.90
2023-03-27T00:03:50.186Z,5.00
2023-03-27T00:05:50.523Z,3.20
2023-03-27T00:07:50.801Z,4.00
2023-03-27T00:09:51.132Z,5.50
2023-03-27T00:11:51.406Z,3.30
2023-03-27T00:13:51.688Z,4.40
2023-03-27T00:15:51.982Z,4.30
2023-03-27T00:17:52.334Z,5.60
2023-03-27T00:19:52.601Z,6.00
2023-03-27T00:21:52.916Z,5.00
2023-03-27T00:23:53.186Z,6.90
2023-03-27T00:25:53.516Z,8.00
2023-03-27T00:27:53.825Z,8.40
2023-03-27T00:29:54.078Z,8.40
2023-03-27T00:31:54.405Z,9.20
2023-03-27T00:33:54.698Z,8.50
2023-03-27T00:35:55.010Z,14.20
2023-03-27T00:37:56.046Z,11.70
2023-03-27T00:39:56.341Z,12.30
2023-03-27T00:41:56.623Z,11.40
2023-03-27T00:43:56.903Z,15.30
2023-03-27T00:45:57.193Z,14.20
2023-03-27T00:47:57.543Z,14.60
2023-03-27T00:49:57.849Z,16.00
2023-03-27T00:51:58.133Z,19.30
2023-03-27T00:53:58.467Z,15.10
2023-03-27T00:55:58.783Z,16.70
2023-03-27T00:57:59.059Z,18.90
2023-03-27T00:59:59.348Z,15.90
2023-03-27T01:01:59.668Z,20.20
2023-03-27T01:03:59.949Z,16.60
2023-03-27T01:06:00.262Z,16.50
2023-03-27T01:08:01.793Z,24.10
2023-03-27T01:10:02.267Z,15.20
2023-03-27T01:12:02.597Z,15.70
2023-03-27T01:14:02.914Z,25.10
2023-03-27T01:16:03.237Z,23.10
2023-03-27T01:18:03.604Z,19.10
2023-03-27T01:20:03.923Z,16.00
2023-03-27T01:22:04.227Z,20.70
2023-03-27T01:24:04.497Z,18.90
2023-03-27T01:26:04.828Z,19.50
2023-03-27T01:28:05.146Z,18.90
2023-03-27T01:30:05.428Z,16.50
2023-03-27T01:32:05.761Z,19.80
2023-03-27T01:34:06.010Z,14.80
2023-03-27T01:36:07.012Z,18.40
2023-03-27T01:38:07.287Z,17.50
2023-03-27T01:40:07.598Z,19.10
2023-03-27T01:42:07.929Z,19.40
2023-03-27T01:44:08.166Z,18.40
2023-03-27T01:46:08.509Z,18.00
2023-03-27T01:48:08.795Z,15.40
2023-03-27T01:50:09.092Z,20.00
2023-03-27T01:52:09.379Z,14.80
2023-03-27T01:54:09.689Z,16.70
2023-03-27T01:56:09.964Z,14.30
2023-03-27T01:58:10.248Z,17.30
2023-03-27T02:00:17.917Z,14.70
2023-03-27T02:02:15.746Z,13.90
2023-03-27T02:04:16.040Z,12.60
2023-03-27T02:06:16.352Z,9.40
2023-03-27T02:08:16.653Z,11.60
2023-03-27T02:10:16.940Z,12.40
2023-03-27T02:12:17.266Z,16.10
2023-03-27T02:14:17.541Z,16.70
2023-03-27T02:16:17.865Z,13.50
2023-03-27T02:18:18.149Z,11.10
2023-03-27T02:20:18.486Z,13.30
2023-03-27T02:22:18.754Z,13.50
2023-03-27T02:24:19.113Z,14.60
2023-03-27T02:26:19.371Z,12.00
2023-03-27T02:28:19.689Z,12.70
2023-03-27T02:30:19.968Z,10.90
2023-03-27T02:32:20.349Z,8.90
2023-03-27T02:34:20.647Z,16.20
2023-03-27T02:36:20.978Z,15.20
2023-03-27T02:38:21.268Z,13.50
2023-03-27T02:40:21.578Z,15.90
2023-03-27T02:42:21.888Z,13.20
2023-03-27T02:44:22.199Z,9.80
2023-03-27T02:46:22.533Z,14.80
2023-03-27T02:48:22.780Z,10.50
2023-03-27T02:50:23.116Z,9.90
2023-03-27T02:52:23.450Z,13.00
2023-03-27T02:54:23.738Z,10.20
2023-03-27T02:56:24.051Z,12.80
2023-03-27T02:58:24.331Z,12.00
2023-03-27T03:00:24.663Z,10.70
2023-03-27T03:02:25.089Z,13.70
2023-03-27T03:04:25.437Z,11.20
2023-03-27T03:06:25.752Z,12.60
2023-03-27T03:08:26.035Z,13.80
2023-03-27T03:10:26.326Z,16.60
2023-03-27T03:12:26.642Z,13.00
2023-03-27T03:14:26.972Z,11.40
2023-03-27T03:16:27.280Z,12.20
2023-03-27T03:18:27.649Z,11.90
2023-03-27T03:20:27.959Z,14.50
2023-03-27T03:22:28.261Z,10.50
2023-03-27T03:24:28.580Z,9.60
2023-03-27T03:26:28.867Z,11.00
2023-03-27T03:28:29.225Z,8.20
2023-03-27T03:30:29.537Z,11.80
2023-03-27T03:32:29.884Z,12.30
2023-03-27T03:34:30.190Z,12.40
2023-03-27T03:36:30.505Z,10.80
2023-03-27T03:38:37.661Z,8.80
2023-03-27T03:40:36.021Z,11.10
2023-03-27T03:42:36.295Z,10.50
2023-03-27T03:44:36.582Z,10.70
2023-03-27T03:46:36.989Z,12.10
2023-03-27T03:48:37.296Z,9.40
2023-03-27T03:50:37.574Z,7.60
2023-03-27T03:52:37.902Z,11.20
2023-03-27T03:54:38.218Z,12.30
2023-03-27T03:56:38.561Z,11.70
2023-03-27T03:58:38.852Z,12.70
2023-03-27T04:00:39.106Z,9.00
2023-03-27T04:02:39.473Z,13.90
2023-03-27T04:04:39.814Z,13.50
2023-03-27T04:06:40.115Z,12.00
2023-03-27T04:08:40.459Z,11.90
2023-03-27T04:10:40.705Z,11.20
2023-03-27T04:12:41.048Z,12.50
2023-03-27T04:14:41.337Z,9.60
2023-03-27T04:16:41.658Z,9.20
2023-03-27T04:18:42.030Z,11.80
2023-03-27T04:20:42.358Z,13.40
2023-03-27T04:22:42.637Z,11.60
2023-03-27T04:24:42.914Z,10.00
2023-03-27T04:26:43.237Z,14.20
2023-03-27T04:28:43.605Z,12.40
2023-03-27T04:30:43.894Z,8.30
2023-03-27T04:32:44.216Z,11.20
2023-03-27T04:34:44.557Z,15.50
2023-03-27T04:36:44.832Z,12.50
2023-03-27T04:38:45.140Z,11.50
2023-03-27T04:40:45.480Z,11.00
2023-03-27T04:42:45.819Z,12.50
2023-03-27T04:44:46.132Z,6.50
2023-03-27T04:46:46.444Z,14.40
2023-03-27T04:48:46.835Z,10.70
2023-03-27T04:50:47.077Z,12.40
2023-03-27T04:52:49.039Z,11.60
2023-03-27T04:54:50.661Z,9.30
2023-03-27T04:56:51.059Z,9.00
2023-03-27T04:58:51.439Z,9.50
2023-03-27T05:00:51.700Z,10.90
2023-03-27T05:02:52.122Z,40.30
2023-03-27T05:04:52.558Z,28.80
2023-03-27T05:06:52.854Z,20.40
2023-03-27T05:08:55.624Z,38.50
2023-03-27T05:10:56.618Z,14.50
2023-03-27T05:12:58.412Z,15.40
2023-03-27T05:15:50.864Z,13.90
2023-03-27T05:18:34.136Z,10.60
